Time;durP1;ratioP1;P1;durP2;ratioP2;P2;SDS_P1;SDS_P2;PMS_P1;PMS_P2;Temp;Humidity;BMP_temperature;BMP_pressure;BME280_temperature;BME280_humidity;BME280_pressure;Samples;Min_cycle;Max_cycle;Signal;HPM_P1;HPM_P2
2021/04/23 00:01:54;;;;;;;4.72;2.00;;;20.30;52.80;;;;;;4956052;28;20023;-65
2021/04/23 00:04:21;;;;;;;2.90;1.83;;;20.40;52.10;;;;;;4974923;28;20026;-64
2021/04/23 00:06:53;;;;;;;5.43;1.55;;;20.50;51.90;;;;;;4973632;28;20528;-63
2021/04/23 00:09:23;;;;;;;3.80;1.80;;;20.50;51.80;;;;;;4973476;28;20097;-65
2021/04/23 00:11:55;;;;;;;4.82;2.03;;;20.60;51.70;;;;;;4973699;28;20034;-64
2021/04/23 00:14:26;;;;;;;12.55;2.55;;;20.60;51.30;;;;;;4974064;28;20074;-63
2021/04/23 00:16:54;;;;;;;8.77;2.53;;;20.70;52.20;;;;;;4973853;28;20076;-65
2021/04/23 00:19:24;;;;;;;4.78;1.70;;;20.70;51.40;;;;;;4974040;28;20129;-65
2021/04/23 00:21:52;;;;;;;6.72;2.05;;;20.80;51.10;;;;;;4973824;28;20490;-64
2021/04/23 00:24:20;;;;;;;8.52;1.77;;;20.90;51.60;;;;;;4974148;28;20482;-65
2021/04/23 00:26:48;;;;;;;3.10;2.10;;;20.90;50.90;;;;;;4973844;28;20023;-63
2021/04/23 00:29:16;;;;;;;6.50;1.90;;;21.00;51.10;;;;;;4974060;28;20039;-66
2021/04/23 00:31:47;;;;;;;6.53;2.20;;;21.10;50.10;;;;;;4972937;28;20049;-66
2021/04/23 00:34:14;;;;;;;9.27;2.55;;;21.10;50.70;;;;;;4973711;28;20023;-65
2021/04/23 00:36:42;;;;;;;6.22;2.53;;;21.10;50.40;;;;;;4973989;28;20366;-63
2021/04/23 00:39:09;;;;;;;2.35;1.48;;;21.20;49.80;;;;;;4974052;28;20405;-65
2021/04/23 00:41:37;;;;;;;3.38;1.98;;;21.20;51.70;;;;;;4956486;28;20422;-63
2021/04/23 00:44:05;;;;;;;5.40;2.28;;;21.20;50.60;;;;;;4973473;28;20073;-63
2021/04/23 00:46:34;;;;;;;4.30;2.10;;;21.30;50.70;;;;;;4973455;28;20477;-64
2021/04/23 00:49:05;;;;;;;5.75;2.33;;;21.40;50.50;;;;;;4973323;28;20170;-62
2021/04/23 00:51:37;;;;;;;10.25;1.83;;;21.50;50.30;;;;;;4974909;28;20389;-65
2021/04/23 00:54:10;;;;;;;6.80;2.53;;;21.50;50.00;;;;;;4974339;28;20027;-66
2021/04/23 00:56:40;;;;;;;5.07;2.00;;;21.60;49.60;;;;;;4973758;28;20031;-64
2021/04/23 00:59:10;;;;;;;8.95;2.72;;;21.60;49.80;;;;;;4972977;28;20189;-66
2021/04/23 01:01:50;;;;;;;5.55;2.92;;;21.70;50.10;;;;;;4973666;28;20136;-65
2021/04/23 01:04:19;;;;;;;4.13;2.13;;;21.80;49.40;;;;;;4973022;28;20110;-66
2021/04/23 01:06:47;;;;;;;8.45;2.75;;;21.90;49.20;;;;;;4973483;28;20113;-64
2021/04/23 01:09:21;;;;;;;5.28;2.13;;;21.90;47.90;;;;;;4973306;28;20481;-65
2021/04/23 01:11:49;;;;;;;4.75;1.85;;;22.00;49.80;;;;;;4972786;28;20058;-64
2021/04/23 01:14:18;;;;;;;4.53;2.00;;;22.00;48.40;;;;;;4972686;28;20110;-64
2021/04/23 01:16:46;;;;;;;7.10;2.00;;;22.00;49.00;;;;;;4972759;28;20058;-64
2021/04/23 01:19:17;;;;;;;5.90;1.75;;;22.00;48.10;;;;;;4972992;28;20080;-64
2021/04/23 01:21:46;;;;;;;2.97;1.92;;;22.10;48.70;;;;;;4955666;28;20031;-64
2021/04/23 01:24:14;;;;;;;4.32;1.88;;;22.30;48.60;;;;;;4972855;28;20027;-63
2021/04/23 01:26:45;;;;;;;2.47;1.42;;;22.20;48.10;;;;;;4973166;28;20026;-63
2021/04/23 01:29:15;;;;;;;8.23;2.70;;;22.30;48.70;;;;;;4973181;28;20027;-66
2021/04/23 01:31:46;;;;;;;4.45;1.63;;;22.40;47.80;;;;;;4972558;28;20023;-65
2021/04/23 01:34:16;;;;;;;3.47;1.92;;;22.40;47.00;;;;;;4972850;28;20110;-63
2021/04/23 01:36:44;;;;;;;4.00;2.10;;;22.40;49.70;;;;;;4972796;28;20026;-62
2021/04/23 01:39:16;;;;;;;3.47;1.80;;;22.50;48.80;;;;;;4972980;28;20230;-65
2021/04/23 01:41:45;;;;;;;4.03;2.28;;;22.60;47.90;;;;;;4972596;28;20178;-64
2021/04/23 01:44:13;;;;;;;3.92;1.83;;;22.70;47.10;;;;;;4955156;28;20031;-64
2021/04/23 01:46:41;;;;;;;4.47;1.48;;;22.70;48.00;;;;;;4972167;28;20042;-65
2021/04/23 01:49:12;;;;;;;2.92;1.70;;;22.80;49.00;;;;;;4972384;28;20564;-64
2021/04/23 01:51:42;;;;;;;3.65;1.65;;;22.80;49.10;;;;;;4972649;28;20035;-64
2021/04/23 01:54:10;;;;;;;9.85;1.70;;;22.80;48.50;;;;;;4972372;28;20106;-64
2021/04/23 01:56:38;;;;;;;7.55;2.20;;;22.90;46.70;;;;;;4972303;28;20405;-64
2021/04/23 01:59:08;;;;;;;4.35;2.03;;;23.00;48.00;;;;;;4975389;28;20475;-64
2021/04/23 02:01:36;;;;;;;5.22;1.65;;;23.10;46.90;;;;;;4976116;28;20105;-64
2021/04/23 02:04:06;;;;;;;5.53;1.83;;;23.10;47.60;;;;;;4975858;28;20035;-65
2021/04/23 02:06:34;;;;;;;5.03;1.42;;;23.20;45.60;;;;;;4972836;28;20019;-64
2021/04/23 02:09:02;;;;;;;5.40;2.13;;;23.20;46.50;;;;;;4975659;28;20027;-64
2021/04/23 02:11:30;;;;;;;3.65;1.35;;;23.30;46.80;;;;;;4958662;28;20374;-65
2021/04/23 02:13:58;;;;;;;6.30;1.70;;;23.40;46.10;;;;;;4976054;28;20471;-64
2021/04/23 02:16:25;;;;;;;4.38;2.08;;;23.30;46.10;;;;;;4976016;28;20106;-64
2021/04/23 02:18:53;;;;;;;4.13;1.48;;;23.50;46.60;;;;;;4976101;28;20384;-65
2021/04/23 02:21:21;;;;;;;5.88;1.80;;;23.50;46.70;;;;;;4976549;28;20054;-64
2021/04/23 02:23:50;;;;;;;3.35;1.40;;;23.50;45.20;;;;;;4958522;28;20528;-66
2021/04/23 02:26:19;;;;;;;4.18;1.70;;;23.60;46.10;;;;;;4975637;28;20085;-65
2021/04/23 02:28:53;;;;;;;1.88;1.35;;;23.60;47.80;;;;;;4975950;28;20022;-65
2021/04/23 02:31:27;;;;;;;7.20;1.80;;;23.60;48.20;;;;;;4976162;28;20034;-64
2021/04/23 02:33:58;;;;;;;5.18;2.03;;;23.70;46.90;;;;;;4976134;28;20069;-65
2021/04/23 02:36:25;;;;;;;4.50;1.73;;;23.70;47.30;;;;;;4976121;28;20134;-64
2021/04/23 02:38:54;;;;;;;7.28;1.90;;;23.70;47.40;;;;;;4976018;28;20027;-64
2021/04/23 02:41:21;;;;;;;3.35;1.63;;;23.80;46.70;;;;;;4975964;28;20030;-65
2021/04/23 02:43:52;;;;;;;9.35;2.10;;;23.90;45.80;;;;;;4958202;28;20079;-65
2021/04/23 02:46:22;;;;;;;5.50;1.60;;;23.90;46.10;;;;;;4976447;28;20041;-65
2021/04/23 02:48:51;;;;;;;7.20;1.90;;;23.90;45.40;;;;;;4975605;28;20125;-66
2021/04/23 02:51:25;;;;;;;2.95;1.67;;;24.00;45.20;;;;;;4975477;28;20509;-64
2021/04/23 02:53:54;;;;;;;6.80;1.75;;;24.10;46.90;;;;;;4975667;28;20386;-63
2021/04/23 02:56:24;;;;;;;1.67;1.05;;;24.10;45.60;;;;;;4976102;28;20154;-65
2021/04/23 02:58:55;;;;;;;2.40;1.35;;;24.10;47.40;;;;;;4958586;28;20031;-65
2021/04/23 03:01:27;;;;;;;5.72;1.33;;;24.20;47.50;;;;;;4976268;28;20031;-66
2021/04/23 03:03:54;;;;;;;3.13;1.40;;;24.30;46.20;;;;;;4975798;28;20389;-67
2021/04/23 03:06:22;;;;;;;3.05;1.60;;;24.50;46.30;;;;;;4975820;28;20031;-65
2021/04/23 03:08:50;;;;;;;8.90;3.03;;;24.50;47.00;;;;;;4975421;28;20142;-66
2021/04/23 03:11:21;;;;;;;2.67;1.52;;;24.50;44.80;;;;;;4975399;28;20066;-67
2021/04/23 03:13:52;;;;;;;4.45;1.55;;;24.60;46.80;;;;;;4974595;28;20034;-66
2021/04/23 03:16:20;;;;;;;2.75;1.35;;;24.60;44.50;;;;;;4976288;28;20019;-65
2021/04/23 03:18:48;;;;;;;2.70;1.33;;;24.60;44.10;;;;;;4974864;28;20038;-64
2021/04/23 03:21:18;;;;;;;3.22;1.50;;;24.60;44.80;;;;;;4975129;28;20027;-66
2021/04/23 03:23:47;;;;;;;2.88;1.50;;;24.60;46.50;;;;;;4975069;28;20026;-65
2021/04/23 03:26:17;;;;;;;2.72;1.50;;;24.70;46.10;;;;;;4974824;28;20054;-66
2021/04/23 03:28:47;;;;;;;5.05;1.60;;;24.70;45.00;;;;;;4974225;28;20405;-64
2021/04/23 03:31:16;;;;;;;6.82;1.25;;;24.70;46.10;;;;;;4974049;28;20027;-65
2021/04/23 03:33:45;;;;;;;6.28;1.85;;;24.80;45.40;;;;;;4974453;28;20031;-64
2021/04/23 03:36:13;;;;;;;4.97;1.83;;;24.70;45.90;;;;;;4940949;28;20034;-66
2021/04/23 03:38:44;;;;;;;2.58;1.33;;;24.80;44.00;;;;;;4974489;28;20030;-65
2021/04/23 03:41:23;;;;;;;3.88;1.73;;;24.80;47.10;;;;;;4974464;28;20046;-65
2021/04/23 03:43:51;;;;;;;4.18;1.70;;;24.90;44.70;;;;;;4972933;28;20485;-65
2021/04/23 03:46:18;;;;;;;3.35;1.80;;;24.90;44.80;;;;;;4973912;28;20150;-63
2021/04/23 03:48:46;;;;;;;3.90;1.50;;;25.00;46.20;;;;;;4973983;28;20030;-65
2021/04/23 03:51:16;;;;;;;3.78;1.73;;;25.10;45.10;;;;;;4973923;28;20058;-64
2021/04/23 03:53:45;;;;;;;6.80;1.30;;;25.00;46.50;;;;;;4973866;28;20089;-64
2021/04/23 03:56:13;;;;;;;5.30;1.88;;;25.10;45.60;;;;;;4973505;28;20038;-64
2021/04/23 03:58:41;;;;;;;5.22;2.05;;;25.20;44.00;;;;;;4974488;28;20078;-65
2021/04/23 04:01:19;;;;;;;4.55;2.00;;;25.20;45.70;;;;;;4974393;28;20045;-67
2021/04/23 04:03:49;;;;;;;2.55;1.30;;;25.20;45.30;;;;;;4972430;28;20452;-63
2021/04/23 04:06:17;;;;;;;1.25;1.02;;;25.20;46.30;;;;;;4973622;28;20480;-67
2021/04/23 04:08:44;;;;;;;2.78;1.13;;;25.20;46.70;;;;;;4974029;28;20485;-64
2021/04/23 04:11:12;;;;;;;4.38;1.40;;;25.30;46.60;;;;;;4973891;28;20045;-66
2021/04/23 04:13:40;;;;;;;5.25;1.90;;;25.40;46.00;;;;;;4974557;28;20023;-65
2021/04/23 04:16:08;;;;;;;2.03;1.23;;;25.40;45.50;;;;;;4974157;28;20025;-65
2021/04/23 04:18:35;;;;;;;2.58;1.35;;;25.40;46.50;;;;;;4974266;28;20048;-63
2021/04/23 04:21:03;;;;;;;2.55;1.48;;;25.50;46.20;;;;;;4955956;28;20031;-65
2021/04/23 04:23:31;;;;;;;3.03;1.33;;;25.40;46.90;;;;;;4973884;28;20549;-65
2021/04/23 04:26:00;;;;;;;3.22;1.75;;;25.40;46.90;;;;;;4973696;28;20097;-65
2021/04/23 04:28:30;;;;;;;3.17;1.50;;;25.50;46.50;;;;;;4974779;28;20113;-64
2021/04/23 04:30:58;;;;;;;1.48;1.10;;;25.40;47.10;;;;;;4973997;28;20475;-65
2021/04/23 04:33:25;;;;;;;3.80;1.58;;;25.40;47.10;;;;;;4974273;28;20088;-64
2021/04/23 04:35:53;;;;;;;1.95;1.05;;;25.60;47.00;;;;;;4973820;28;20026;-64
2021/04/23 04:38:20;;;;;;;6.78;1.77;;;25.70;46.70;;;;;;4974029;28;20447;-64
2021/04/23 04:40:50;;;;;;;3.63;1.55;;;25.70;46.60;;;;;;4973539;28;20041;-65
2021/04/23 04:43:18;;;;;;;3.03;1.17;;;25.60;47.00;;;;;;4972955;28;20331;-59
2021/04/23 04:45:47;;;;;;;2.85;1.17;;;25.50;47.20;;;;;;4973243;28;20331;-64
2021/04/23 04:48:15;;;;;;;5.55;1.33;;;25.60;45.70;;;;;;4973784;28;20034;-64
2021/04/23 04:50:47;;;;;;;2.17;1.10;;;25.60;47.00;;;;;;4973036;28;20138;-65
2021/04/23 04:53:15;;;;;;;1.77;1.23;;;25.50;47.40;;;;;;4973553;28;20038;-65
2021/04/23 04:55:46;;;;;;;2.42;1.40;;;25.50;47.50;;;;;;4973391;28;20058;-64
2021/04/23 04:58:16;;;;;;;2.92;1.17;;;25.50;47.10;;;;;;4972965;28;20023;-66
2021/04/23 05:00:44;;;;;;;2.17;1.05;;;25.50;46.90;;;;;;4973795;28;20107;-64
2021/04/23 05:03:13;;;;;;;2.75;1.13;;;25.50;47.20;;;;;;4973950;28;20106;-66
2021/04/23 05:05:42;;;;;;;5.18;1.30;;;25.50;46.40;;;;;;4973863;28;20045;-66
2021/04/23 05:08:13;;;;;;;3.92;1.52;;;25.60;46.90;;;;;;4970036;28;20042;-66
2021/04/23 05:10:40;;;;;;;3.42;1.40;;;25.50;46.80;;;;;;4973008;28;20092;-64
2021/04/23 05:13:08;;;;;;;3.20;1.20;;;25.60;46.60;;;;;;4971792;28;20142;-65
2021/04/23 05:15:36;;;;;;;1.80;1.25;;;25.50;47.50;;;;;;4972797;28;20474;-66
2021/04/23 05:18:04;;;;;;;1.75;1.05;;;25.40;47.60;;;;;;4973275;28;20540;-65
2021/04/23 05:20:31;;;;;;;4.30;1.25;;;25.50;47.80;;;;;;4972705;28;20124;-64
2021/04/23 05:22:59;;;;;;;3.47;1.70;;;25.50;47.50;;;;;;4972692;28;20047;-66
2021/04/23 05:25:28;;;;;;;3.83;1.70;;;25.50;47.70;;;;;;4973013;28;20030;-64
2021/04/23 05:27:56;;;;;;;2.83;1.30;;;25.50;47.60;;;;;;4971179;28;20046;-65
2021/04/23 05:30:27;;;;;;;1.52;1.08;;;25.50;48.10;;;;;;4972601;28;20022;-66
2021/04/23 05:32:56;;;;;;;1.90;1.30;;;25.40;48.20;;;;;;4973807;28;20093;-67
2021/04/23 05:35:23;;;;;;;1.90;1.17;;;25.40;48.20;;;;;;4975204;28;20038;-66
2021/04/23 05:37:51;;;;;;;2.50;1.10;;;25.40;48.20;;;;;;4976282;28;20086;-65
2021/04/23 05:40:24;;;;;;;3.35;1.40;;;25.30;47.90;;;;;;4975334;28;20402;-66
2021/04/23 05:42:53;;;;;;;1.90;1.08;;;25.40;48.00;;;;;;4979174;28;20106;-65
2021/04/23 05:45:20;;;;;;;1.55;0.93;;;25.30;46.70;;;;;;4977249;28;20026;-64
2021/04/23 05:47:48;;;;;;;1.45;1.02;;;25.20;48.50;;;;;;4976134;28;20027;-64
2021/04/23 05:50:16;;;;;;;3.80;1.30;;;25.20;48.30;;;;;;4976276;28;20466;-66
2021/04/23 05:52:45;;;;;;;1.60;1.27;;;25.10;48.70;;;;;;4976105;28;20026;-66
2021/04/23 05:55:15;;;;;;;2.05;1.35;;;25.10;48.50;;;;;;4975581;28;20042;-66
2021/04/23 05:57:43;;;;;;;2.97;1.40;;;25.10;48.80;;;;;;4976535;28;20186;-64
2021/04/23 06:00:14;;;;;;;1.73;1.30;;;25.00;49.20;;;;;;4976178;28;20043;-64
2021/04/23 06:02:42;;;;;;;2.28;1.15;;;25.00;48.70;;;;;;4976181;28;20462;-66
2021/04/23 06:05:12;;;;;;;3.65;1.30;;;25.00;49.20;;;;;;4976615;28;20038;-66
2021/04/23 06:07:39;;;;;;;1.17;1.08;;;24.90;49.40;;;;;;4976656;28;20033;-65
2021/04/23 06:10:11;;;;;;;2.97;1.33;;;24.90;49.20;;;;;;4975686;28;20074;-66
2021/04/23 06:12:39;;;;;;;1.83;1.02;;;24.90;48.50;;;;;;4976180;28;20035;-65
2021/04/23 06:15:09;;;;;;;2.55;1.48;;;24.80;49.80;;;;;;4976464;28;20050;-65
2021/04/23 06:17:37;;;;;;;2.33;1.10;;;24.80;49.40;;;;;;4976732;28;20059;-64
2021/04/23 06:20:11;;;;;;;3.08;1.73;;;24.70;50.10;;;;;;4976074;28;20478;-65
2021/04/23 06:22:39;;;;;;;2.88;1.20;;;24.60;50.00;;;;;;4976662;28;20105;-65
2021/04/23 06:25:12;;;;;;;2.35;1.10;;;24.60;50.10;;;;;;4976178;28;20074;-64
2021/04/23 06:27:40;;;;;;;2.25;1.33;;;24.50;49.90;;;;;;4976353;28;20058;-66
2021/04/23 06:30:12;;;;;;;1.75;1.20;;;24.40;50.10;;;;;;4975977;28;20489;-64
2021/04/23 06:32:41;;;;;;;;;;;24.30;50.40;;;;;;4976828;28;20027;-67
2021/04/23 06:35:16;;;;;;;1.45;1.15;;;24.20;50.60;;;;;;4974324;28;20391;-64
2021/04/23 06:37:45;;;;;;;2.58;1.27;;;24.00;50.80;;;;;;4976102;28;20051;-64
2021/04/23 06:40:14;;;;;;;2.55;1.23;;;23.80;51.00;;;;;;4975631;28;20046;-64
2021/04/23 06:42:42;;;;;;;1.55;1.20;;;23.60;51.80;;;;;;4975794;28;20479;-66
2021/04/23 06:45:13;;;;;;;2.47;1.15;;;23.40;52.40;;;;;;4974909;28;20107;-64
2021/04/23 06:47:40;;;;;;;2.95;1.35;;;23.20;52.90;;;;;;4976143;28;20043;-64
2021/04/23 06:50:09;;;;;;;2.60;1.65;;;23.00;53.20;;;;;;4975878;28;20261;-66
2021/04/23 06:52:38;;;;;;;2.33;1.65;;;22.90;52.90;;;;;;4975639;28;20097;-67
2021/04/23 06:55:08;;;;;;;2.65;1.60;;;22.80;52.10;;;;;;4990333;28;20442;-66
2021/04/23 06:57:35;;;;;;;2.33;1.38;;;22.60;54.50;;;;;;4975573;28;20410;-65
2021/04/23 07:00:06;;;;;;;3.40;1.70;;;22.50;54.80;;;;;;4975464;28;20129;-66
2021/04/23 07:02:34;;;;;;;1.60;1.20;;;22.30;55.20;;;;;;4975826;28;20033;-65
2021/04/23 07:05:06;;;;;;;2.50;1.50;;;22.20;55.50;;;;;;4975162;28;20138;-65
2021/04/23 07:07:35;;;;;;;3.00;1.35;;;22.10;55.80;;;;;;4975422;28;20019;-64
2021/04/23 07:10:03;;;;;;;2.40;1.42;;;22.00;54.80;;;;;;4975050;28;20070;-62
2021/04/23 07:12:31;;;;;;;3.78;1.58;;;21.90;55.90;;;;;;4974931;28;20037;-64
2021/04/23 07:14:58;;;;;;;2.45;1.40;;;21.80;56.30;;;;;;4974962;28;20045;-65
2021/04/23 07:17:26;;;;;;;2.45;1.23;;;21.70;56.20;;;;;;4975130;28;20085;-67
2021/04/23 07:19:53;;;;;;;5.50;1.83;;;21.70;56.60;;;;;;4972976;28;20039;-65
2021/04/23 07:22:20;;;;;;;2.47;1.52;;;21.60;55.80;;;;;;4974797;28;20031;-64
2021/04/23 07:24:48;;;;;;;3.40;1.77;;;21.50;57.00;;;;;;4974555;28;20090;-65
2021/04/23 07:27:15;;;;;;;2.50;1.48;;;21.50;56.80;;;;;;4974898;28;20065;-64
2021/04/23 07:29:43;;;;;;;2.60;1.40;;;21.40;56.70;;;;;;4974346;28;20033;-65
2021/04/23 07:32:10;;;;;;;3.58;1.33;;;21.40;57.20;;;;;;4974676;28;20022;-65
2021/04/23 07:34:38;;;;;;;3.65;1.33;;;21.40;57.50;;;;;;4975099;28;20035;-65
2021/04/23 07:37:05;;;;;;;2.65;1.48;;;21.30;55.90;;;;;;4975027;28;20037;-60
2021/04/23 07:39:33;;;;;;;2.55;1.15;;;21.30;57.20;;;;;;4974436;28;20034;-66
2021/04/23 07:42:01;;;;;;;4.22;1.45;;;21.20;57.30;;;;;;4975186;28;20073;-67
2021/04/23 07:44:28;;;;;;;1.85;1.35;;;21.20;57.70;;;;;;4990290;28;20498;-67
2021/04/23 07:46:56;;;;;;;2.72;1.58;;;21.10;57.70;;;;;;4975186;28;20077;-67
2021/04/23 07:49:23;;;;;;;2.40;1.27;;;21.00;57.60;;;;;;4974764;28;20401;-69
2021/04/23 07:51:53;;;;;;;1.30;1.00;;;21.00;57.80;;;;;;4974600;28;20034;-68
2021/04/23 07:54:21;;;;;;;2.28;1.17;;;20.90;58.00;;;;;;4975322;28;20023;-66
2021/04/23 07:56:48;;;;;;;2.38;1.27;;;20.90;57.70;;;;;;4972966;28;20113;-63
2021/04/23 07:59:16;;;;;;;2.22;1.23;;;20.90;58.00;;;;;;4974637;28;20062;-65
2021/04/23 08:01:43;;;;;;;2.10;1.17;;;20.80;58.20;;;;;;4974590;28;20193;-65
2021/04/23 08:04:10;;;;;;;2.13;1.23;;;20.80;58.00;;;;;;4974257;28;20478;-65
2021/04/23 08:06:38;;;;;;;2.60;1.35;;;20.70;57.90;;;;;;4975269;28;20035;-64
2021/04/23 08:09:06;;;;;;;2.65;1.95;;;20.70;58.20;;;;;;4953935;28;20090;-65
2021/04/23 08:11:33;;;;;;;3.78;1.38;;;20.70;58.20;;;;;;4956580;29;20062;-65
2021/04/23 08:14:00;;;;;;;2.53;1.70;;;20.70;58.50;;;;;;4955641;28;20027;-65
2021/04/23 08:16:27;;;;;;;2.15;1.55;;;20.60;58.40;;;;;;4955166;28;20031;-64
2021/04/23 08:18:55;;;;;;;1.58;1.20;;;20.60;58.50;;;;;;4954585;29;20027;-66
2021/04/23 08:21:22;;;;;;;2.25;1.40;;;20.50;58.50;;;;;;4954764;28;20410;-67
2021/04/23 08:23:50;;;;;;;1.40;1.08;;;20.50;58.50;;;;;;4954754;28;20035;-67
2021/04/23 08:26:18;;;;;;;2.72;1.48;;;20.50;58.60;;;;;;4955173;29;20098;-64
2021/04/23 08:28:46;;;;;;;2.60;1.63;;;20.50;58.60;;;;;;4954069;29;20023;-64
2021/04/23 08:31:13;;;;;;;2.63;1.55;;;20.40;58.30;;;;;;4954801;29;20027;-65
2021/04/23 08:33:40;;;;;;;1.70;1.20;;;20.40;58.40;;;;;;4955412;28;20089;-65
2021/04/23 08:36:08;;;;;;;4.03;1.77;;;20.40;58.70;;;;;;4955197;28;20023;-66
2021/04/23 08:38:36;;;;;;;2.60;1.42;;;20.40;58.70;;;;;;4955291;29;20031;-64
2021/04/23 08:41:03;;;;;;;1.90;1.45;;;20.40;58.90;;;;;;4955320;29;20062;-66
2021/04/23 08:43:31;;;;;;;3.10;1.30;;;20.30;58.90;;;;;;4954812;28;20019;-66
2021/04/23 08:45:58;;;;;;;1.70;1.10;;;20.30;58.90;;;;;;4955178;29;20038;-65
2021/04/23 08:48:27;;;;;;;1.70;1.30;;;20.30;59.00;;;;;;4955630;29;20031;-64
2021/04/23 08:50:55;;;;;;;2.28;1.48;;;20.30;59.00;;;;;;4955996;28;20132;-66
2021/04/23 08:53:28;;;;;;;4.60;1.65;;;20.20;59.00;;;;;;4955217;29;20363;-64
2021/04/23 08:55:57;;;;;;;3.08;1.95;;;20.20;58.40;;;;;;4955017;28;20062;-63
2021/04/23 08:58:24;;;;;;;5.97;1.98;;;20.20;57.90;;;;;;4955138;28;20031;-68
2021/04/23 09:00:53;;;;;;;2.60;1.73;;;20.30;58.90;;;;;;4954956;28;20047;-63
2021/04/23 09:03:23;;;;;;;2.30;1.33;;;20.20;59.00;;;;;;4955289;29;20034;-64
2021/04/23 09:06:08;;;;;;;1.85;1.50;;;20.20;59.10;;;;;;4954701;29;20062;-63
2021/04/23 09:08:46;;;;;;;1.98;1.30;;;20.10;58.80;;;;;;4954709;28;20058;-64
2021/04/23 09:11:26;;;;;;;4.47;2.05;;;20.10;58.80;;;;;;4954936;29;20024;-66
2021/04/23 09:14:00;;;;;;;3.50;1.95;;;20.10;59.00;;;;;;4954267;28;20431;-67
2021/04/23 09:16:46;;;;;;;2.40;1.55;;;20.10;58.70;;;;;;4954604;28;20118;-67
2021/04/23 09:19:25;;;;;;;4.97;2.10;;;20.10;59.00;;;;;;4954495;28;20063;-68
2021/04/23 09:22:09;;;;;;;1.67;1.55;;;20.10;57.60;;;;;;4954412;28;20032;-65
2021/04/23 09:24:40;;;;;;;3.88;2.30;;;20.10;59.10;;;;;;4954235;29;20034;-63
2021/04/23 09:27:19;;;;;;;4.68;1.58;;;20.10;58.60;;;;;;4953931;29;20023;-63
2021/04/23 09:29:50;;;;;;;2.92;1.75;;;20.00;59.00;;;;;;4954043;28;20110;-66
2021/04/23 09:32:23;;;;;;;2.63;1.63;;;20.00;59.00;;;;;;4954623;28;20034;-63
2021/04/23 09:35:00;;;;;;;3.10;1.90;;;20.00;58.90;;;;;;4954013;28;20026;-67
2021/04/23 09:37:41;;;;;;;3.10;1.45;;;20.00;58.80;;;;;;4954027;28;20082;-64
2021/04/23 09:40:17;;;;;;;2.60;1.63;;;20.00;59.20;;;;;;4952804;28;20090;-65
2021/04/23 09:42:56;;;;;;;2.78;1.48;;;19.90;59.20;;;;;;4952335;28;20023;-62
2021/04/23 09:45:29;;;;;;;3.35;1.95;;;19.90;59.30;;;;;;4953841;29;20495;-64
2021/04/23 09:47:57;;;;;;;2.28;2.08;;;19.90;59.40;;;;;;4954182;28;20106;-63
2021/04/23 09:50:37;;;;;;;7.47;3.13;;;19.90;59.20;;;;;;4956261;28;20055;-66
2021/04/23 09:53:08;;;;;;;3.80;2.00;;;19.90;59.20;;;;;;4973135;28;20047;-64
2021/04/23 09:55:36;;;;;;;6.25;2.83;;;19.90;59.10;;;;;;4956050;28;20061;-66
2021/04/23 09:58:09;;;;;;;2.63;1.70;;;19.90;59.10;;;;;;4973798;28;20037;-65
2021/04/23 10:00:40;;;;;;;3.80;2.20;;;19.90;59.10;;;;;;4973676;28;20039;-65
2021/04/23 10:03:08;;;;;;;2.33;1.60;;;19.80;59.30;;;;;;4973338;28;20113;-61
2021/04/23 10:05:43;;;;;;;2.83;1.50;;;19.80;59.20;;;;;;4972186;28;20043;-67
2021/04/23 10:08:12;;;;;;;4.13;2.47;;;19.80;59.60;;;;;;4973836;28;20081;-62
2021/04/23 10:10:51;;;;;;;2.90;1.95;;;19.80;59.50;;;;;;4973346;28;20092;-66
2021/04/23 10:13:30;;;;;;;2.30;1.60;;;19.80;59.80;;;;;;4972794;28;20030;-66
2021/04/23 10:15:57;;;;;;;5.38;2.10;;;19.80;59.70;;;;;;4973371;28;20444;-66
2021/04/23 10:18:25;;;;;;;8.27;2.30;;;19.70;59.90;;;;;;4973094;28;20135;-66
2021/04/23 10:20:57;;;;;;;4.80;1.80;;;19.70;59.90;;;;;;4976085;28;20131;-67
2021/04/23 10:23:25;;;;;;;14.23;2.85;;;19.70;59.80;;;;;;4975171;28;20019;-65
2021/04/23 10:25:54;;;;;;;3.08;2.25;;;19.70;59.60;;;;;;4975521;28;20129;-66
2021/04/23 10:28:24;;;;;;;7.22;2.58;;;19.70;59.70;;;;;;4975553;28;20026;-64
2021/04/23 10:30:54;;;;;;;4.93;1.95;;;19.70;59.70;;;;;;4975563;28;20023;-65
2021/04/23 10:33:28;;;;;;;2.53;1.52;;;19.70;59.80;;;;;;4958636;28;20018;-65
2021/04/23 10:35:59;;;;;;;3.40;1.92;;;19.70;60.00;;;;;;4978420;28;20035;-66
2021/04/23 10:38:37;;;;;;;7.97;1.98;;;19.60;59.80;;;;;;4977322;28;20105;-66
2021/04/23 10:41:12;;;;;;;3.42;2.20;;;19.60;59.90;;;;;;4976376;28;20401;-64
2021/04/23 10:43:52;;;;;;;3.97;2.33;;;19.60;59.80;;;;;;4976167;28;20030;-68
2021/04/23 10:46:21;;;;;;;3.85;2.10;;;19.60;59.90;;;;;;4976449;28;20474;-63
2021/04/23 10:48:49;;;;;;;5.47;2.85;;;19.60;60.00;;;;;;4975609;28;20031;-64
2021/04/23 10:51:19;;;;;;;5.07;2.72;;;19.60;59.90;;;;;;4976487;28;20054;-66
2021/04/23 10:53:55;;;;;;;3.10;2.42;;;19.60;59.90;;;;;;4976311;28;20034;-64
2021/04/23 10:56:31;;;;;;;2.67;2.15;;;19.60;60.10;;;;;;4976468;28;20022;-66
2021/04/23 10:59:01;;;;;;;4.28;2.53;;;19.50;60.10;;;;;;4975990;28;20213;-66
2021/04/23 11:01:41;;;;;;;7.60;2.47;;;19.50;60.10;;;;;;4976089;28;20031;-66
2021/04/23 11:04:11;;;;;;;8.55;2.75;;;19.50;60.10;;;;;;4976354;28;20073;-65
2021/04/23 11:06:51;;;;;;;4.40;2.60;;;19.40;60.10;;;;;;4975386;28;20039;-67
2021/04/23 11:09:23;;;;;;;4.32;2.30;;;19.50;60.20;;;;;;4975118;28;20115;-64
2021/04/23 11:12:12;;;;;;;5.18;2.70;;;19.50;60.20;;;;;;4976019;28;20023;-66
2021/04/23 11:14:42;;;;;;;3.78;2.72;;;19.40;60.10;;;;;;4975136;28;20042;-66
2021/04/23 11:17:19;;;;;;;2.67;2.15;;;19.40;60.20;;;;;;4975524;28;20033;-66
2021/04/23 11:19:47;;;;;;;3.95;2.75;;;19.40;60.40;;;;;;4975719;28;20046;-67
2021/04/23 11:22:20;;;;;;;4.50;2.75;;;19.40;60.40;;;;;;4975542;28;20027;-65
2021/04/23 11:25:02;;;;;;;4.82;2.70;;;19.40;60.50;;;;;;4975841;28;20066;-66
2021/04/23 11:27:29;;;;;;;5.97;3.10;;;19.40;60.50;;;;;;4975554;28;20026;-65
2021/04/23 11:29:57;;;;;;;3.72;2.55;;;19.40;60.40;;;;;;4975888;28;20838;-68
2021/04/23 11:32:31;;;;;;;4.65;3.00;;;19.40;60.60;;;;;;4958546;28;20114;-63
2021/04/23 11:35:18;;;;;;;3.70;2.65;;;19.30;60.50;;;;;;4975291;28;20037;-64
2021/04/23 11:37:51;;;;;;;4.68;2.80;;;19.30;60.60;;;;;;4975633;28;20506;-66
2021/04/23 11:40:27;;;;;;;4.25;2.88;;;19.30;60.70;;;;;;4957907;28;20046;-66
2021/04/23 11:43:04;;;;;;;4.00;2.88;;;19.30;60.60;;;;;;4975745;28;20106;-67
2021/04/23 11:45:36;;;;;;;5.07;2.80;;;19.30;60.70;;;;;;4975912;28;20035;-66
2021/04/23 11:48:07;;;;;;;3.50;2.80;;;19.30;60.80;;;;;;4975366;28;20023;-63
2021/04/23 11:50:42;;;;;;;2.80;2.33;;;19.20;60.80;;;;;;4975166;28;20066;-66
2021/04/23 11:53:12;;;;;;;5.53;3.10;;;19.20;60.70;;;;;;4974993;28;20043;-65
2021/04/23 11:55:39;;;;;;;4.45;2.97;;;19.20;60.80;;;;;;4974135;28;20090;-65
2021/04/23 11:58:09;;;;;;;4.00;2.78;;;19.20;60.80;;;;;;4974845;28;20019;-66
2021/04/23 12:00:39;;;;;;;5.82;3.35;;;19.20;60.90;;;;;;4975699;28;20042;-65
2021/04/23 12:03:11;;;;;;;4.35;2.58;;;19.20;60.90;;;;;;4974862;28;20074;-63
2021/04/23 12:05:40;;;;;;;4.10;3.33;;;19.20;61.00;;;;;;4974689;28;20030;-64
2021/04/23 12:08:09;;;;;;;5.97;3.53;;;19.10;60.90;;;;;;4974015;28;20031;-66
2021/04/23 12:10:48;;;;;;;5.78;3.50;;;19.20;61.00;;;;;;4974157;28;20057;-63
2021/04/23 12:13:18;;;;;;;5.45;3.25;;;19.20;61.10;;;;;;4974545;28;20046;-65
2021/04/23 12:15:48;;;;;;;4.28;3.05;;;19.10;61.10;;;;;;4973951;28;20437;-64
2021/04/23 12:18:16;;;;;;;5.88;3.75;;;19.10;61.00;;;;;;4974423;28;20097;-64
2021/04/23 12:20:54;;;;;;;5.53;3.42;;;19.10;61.10;;;;;;4974504;28;20397;-65
2021/04/23 12:23:24;;;;;;;5.88;3.00;;;19.10;61.10;;;;;;4974575;28;20031;-66
2021/04/23 12:25:58;;;;;;;5.93;3.70;;;19.10;61.20;;;;;;4974361;28;20027;-63
2021/04/23 12:28:38;;;;;;;6.65;3.55;;;19.00;61.20;;;;;;4973880;28;20382;-64
2021/04/23 12:31:32;;;;;;;5.30;3.60;;;19.00;61.20;;;;;;4956591;28;20037;-65
2021/04/23 12:34:05;;;;;;;6.65;3.50;;;19.00;61.40;;;;;;4973598;28;20042;-65
2021/04/23 12:36:43;;;;;;;6.30;3.88;;;19.00;61.40;;;;;;4974015;28;20165;-65
2021/04/23 12:39:20;;;;;;;6.07;3.47;;;19.00;61.50;;;;;;4973671;28;20389;-66
2021/04/23 12:41:52;;;;;;;5.65;3.50;;;19.00;61.60;;;;;;4973353;28;20142;-66
2021/04/23 12:44:22;;;;;;;5.68;3.45;;;18.90;61.60;;;;;;4973656;28;20175;-65
2021/04/23 12:46:52;;;;;;;4.72;3.35;;;18.90;61.70;;;;;;4973785;28;20046;-65
2021/04/23 12:49:22;;;;;;;5.22;3.85;;;18.90;61.70;;;;;;4973530;28;20129;-63
2021/04/23 12:51:51;;;;;;;7.30;4.05;;;18.80;61.70;;;;;;4973558;28;20025;-66
2021/04/23 12:54:28;;;;;;;5.05;3.50;;;18.80;61.80;;;;;;4956794;28;20071;-65
2021/04/23 12:56:57;;;;;;;5.53;3.67;;;18.80;61.90;;;;;;4973830;28;20027;-66
2021/04/23 12:59:47;;;;;;;4.60;3.40;;;18.80;62.00;;;;;;4975231;28;20611;-66
2021/04/23 13:02:24;;;;;;;4.80;3.55;;;18.80;62.10;;;;;;4975364;28;20070;-65
2021/04/23 13:05:16;;;;;;;4.75;3.83;;;18.80;62.10;;;;;;4973987;28;20524;-64